NFTL

Details ICAO NFTL (HPA)
Name Ha'apai
Region Fiji and Tonga
Timezone Unknown (UTC+0.0)
Plans Departing 2
Arriving 2
Stats Elevation 25 ft / 8 m (AMSL)
Location -19.776874° -174.341259°
Runways 1
Magnetic Variation 13.244° E
Sunrise 2018-05-23 18:02:56 UTC / 2018-05-23 18:02:56 Local
Sunset 2018-05-24 05:08:14 UTC / 2018-05-24 05:08:14 Local
Advertisement - Login to hide

Runways

ID Width Length Bearing (true) Bearing (mag) Surface Threshold Offset Overrun Length
11 92 ft / 28 m 3,950 ft / 1,204 m 120.50° 107.26° Asphalt 0 ft / 0 m 0 ft / 0 m
29 92 ft / 28 m 3,950 ft / 1,204 m 300.50° 287.26° Asphalt 0 ft / 0 m 0 ft / 0 m

Map

Weather


0- 5 10 15 20 25 30 35+ Temperature / ° C

Clouds and Precipitation
Forecast for 2018-05-24 00:00 UTC. Updated 2 hours ago

Ground ~20,000 ft ~40,000 ft Winds

METAR

NFTL 240100Z 09004KT 9999 FEW020 BKN300 27/23 Q1013

TAF

Not found

Frequencies

Tower 118.10 MHz LIFUKA FS
Warning: Do not use this data for real-world aviation or navigation. No guarantee of current accuracy is given.